sensor_id;sensor_type;location;lat;lon;timestamp;P1;durP1;ratioP1;P2;durP2;ratioP2
55146;SDS011;41039;49.830;23.988;2023-04-06T00:00:29;9.30;;;5.30;;
55146;SDS011;41039;49.830;23.988;2023-04-06T00:02:54;7.65;;;5.47;;
55146;SDS011;41039;49.830;23.988;2023-04-06T00:05:20;9.65;;;4.30;;
55146;SDS011;41039;49.830;23.988;2023-04-06T00:07:46;7.35;;;4.15;;
55146;SDS011;41039;49.830;23.988;2023-04-06T00:10:12;6.80;;;3.90;;
55146;SDS011;41039;49.830;23.988;2023-04-06T00:12:37;6.65;;;3.83;;
55146;SDS011;41039;49.830;23.988;2023-04-06T00:15:02;8.18;;;4.80;;
55146;SDS011;41039;49.830;23.988;2023-04-06T00:17:29;8.23;;;4.93;;
55146;SDS011;41039;49.830;23.988;2023-04-06T00:19:54;9.38;;;4.85;;
55146;SDS011;41039;49.830;23.988;2023-04-06T00:22:20;7.22;;;4.50;;
55146;SDS011;41039;49.830;23.988;2023-04-06T00:24:45;7.80;;;4.82;;
55146;SDS011;41039;49.830;23.988;2023-04-06T00:27:10;8.93;;;4.78;;
55146;SDS011;41039;49.830;23.988;2023-04-06T00:29:36;8.00;;;4.43;;
55146;SDS011;41039;49.830;23.988;2023-04-06T00:32:01;7.35;;;4.85;;
55146;SDS011;41039;49.830;23.988;2023-04-06T00:34:27;9.13;;;4.72;;
55146;SDS011;41039;49.830;23.988;2023-04-06T00:36:52;8.23;;;4.38;;
55146;SDS011;41039;49.830;23.988;2023-04-06T00:39:17;8.32;;;4.95;;
55146;SDS011;41039;49.830;23.988;2023-04-06T00:41:45;7.03;;;4.03;;
55146;SDS011;41039;49.830;23.988;2023-04-06T00:44:11;7.55;;;4.50;;
55146;SDS011;41039;49.830;23.988;2023-04-06T00:46:36;7.57;;;4.35;;
55146;SDS011;41039;49.830;23.988;2023-04-06T00:49:02;6.85;;;4.50;;
55146;SDS011;41039;49.830;23.988;2023-04-06T00:51:27;7.40;;;4.43;;
55146;SDS011;41039;49.830;23.988;2023-04-06T00:53:52;9.85;;;4.65;;
55146;SDS011;41039;49.830;23.988;2023-04-06T00:56:17;8.45;;;4.63;;
55146;SDS011;41039;49.830;23.988;2023-04-06T00:58:43;7.72;;;5.00;;
55146;SDS011;41039;49.830;23.988;2023-04-06T01:01:08;7.28;;;4.30;;
55146;SDS011;41039;49.830;23.988;2023-04-06T01:03:33;8.73;;;4.85;;
55146;SDS011;41039;49.830;23.988;2023-04-06T01:05:59;7.50;;;5.00;;
55146;SDS011;41039;49.830;23.988;2023-04-06T01:08:24;8.13;;;5.05;;
55146;SDS011;41039;49.830;23.988;2023-04-06T01:10:49;9.65;;;5.00;;
55146;SDS011;41039;49.830;23.988;2023-04-06T01:13:15;6.53;;;4.65;;
55146;SDS011;41039;49.830;23.988;2023-04-06T01:15:40;8.75;;;4.65;;
55146;SDS011;41039;49.830;23.988;2023-04-06T01:18:07;7.03;;;4.95;;
55146;SDS011;41039;49.830;23.988;2023-04-06T01:20:33;7.03;;;4.25;;
55146;SDS011;41039;49.830;23.988;2023-04-06T01:22:59;8.55;;;4.97;;
55146;SDS011;41039;49.830;23.988;2023-04-06T01:25:24;7.22;;;4.78;;
55146;SDS011;41039;49.830;23.988;2023-04-06T01:27:49;6.82;;;4.20;;
55146;SDS011;41039;49.830;23.988;2023-04-06T01:30:15;8.05;;;4.15;;
55146;SDS011;41039;49.830;23.988;2023-04-06T01:32:42;8.23;;;4.57;;
55146;SDS011;41039;49.830;23.988;2023-04-06T01:35:07;7.55;;;4.95;;
55146;SDS011;41039;49.830;23.988;2023-04-06T01:37:32;9.88;;;5.00;;
55146;SDS011;41039;49.830;23.988;2023-04-06T01:39:58;7.22;;;4.50;;
55146;SDS011;41039;49.830;23.988;2023-04-06T01:42:23;8.48;;;4.55;;
55146;SDS011;41039;49.830;23.988;2023-04-06T01:44:49;7.50;;;4.70;;
55146;SDS011;41039;49.830;23.988;2023-04-06T01:47:14;5.97;;;3.65;;
55146;SDS011;41039;49.830;23.988;2023-04-06T01:49:39;6.15;;;4.00;;
55146;SDS011;41039;49.830;23.988;2023-04-06T01:52:04;6.85;;;4.05;;
55146;SDS011;41039;49.830;23.988;2023-04-06T01:54:30;8.18;;;4.40;;
55146;SDS011;41039;49.830;23.988;2023-04-06T01:56:55;6.60;;;4.22;;
55146;SDS011;41039;49.830;23.988;2023-04-06T01:59:20;8.10;;;4.55;;
55146;SDS011;41039;49.830;23.988;2023-04-06T02:01:45;7.68;;;4.20;;
55146;SDS011;41039;49.830;23.988;2023-04-06T02:04:11;6.75;;;3.97;;
55146;SDS011;41039;49.830;23.988;2023-04-06T02:06:36;7.35;;;3.80;;
55146;SDS011;41039;49.830;23.988;2023-04-06T02:09:01;5.03;;;3.38;;
55146;SDS011;41039;49.830;23.988;2023-04-06T02:11:26;6.28;;;3.88;;
55146;SDS011;41039;49.830;23.988;2023-04-06T02:13:52;7.47;;;4.00;;
55146;SDS011;41039;49.830;23.988;2023-04-06T02:16:17;6.65;;;3.88;;
55146;SDS011;41039;49.830;23.988;2023-04-06T02:18:42;5.63;;;3.25;;
55146;SDS011;41039;49.830;23.988;2023-04-06T02:21:07;7.18;;;4.05;;
55146;SDS011;41039;49.830;23.988;2023-04-06T02:23:33;5.05;;;3.60;;
55146;SDS011;41039;49.830;23.988;2023-04-06T02:25:58;6.20;;;3.72;;
55146;SDS011;41039;49.830;23.988;2023-04-06T02:28:23;7.40;;;3.70;;
55146;SDS011;41039;49.830;23.988;2023-04-06T02:30:48;6.38;;;3.70;;
55146;SDS011;41039;49.830;23.988;2023-04-06T02:33:14;6.43;;;3.90;;
55146;SDS011;41039;49.830;23.988;2023-04-06T02:35:39;6.97;;;4.35;;
55146;SDS011;41039;49.830;23.988;2023-04-06T02:38:04;6.00;;;3.80;;
55146;SDS011;41039;49.830;23.988;2023-04-06T02:40:30;5.85;;;3.47;;
55146;SDS011;41039;49.830;23.988;2023-04-06T02:42:55;8.65;;;5.00;;
55146;SDS011;41039;49.830;23.988;2023-04-06T02:45:20;7.30;;;4.15;;
55146;SDS011;41039;49.830;23.988;2023-04-06T02:47:46;8.73;;;4.00;;
55146;SDS011;41039;49.830;23.988;2023-04-06T02:50:11;7.15;;;3.80;;
55146;SDS011;41039;49.830;23.988;2023-04-06T02:52:36;6.55;;;3.85;;
55146;SDS011;41039;49.830;23.988;2023-04-06T02:55:02;8.48;;;4.70;;
55146;SDS011;41039;49.830;23.988;2023-04-06T02:57:27;8.20;;;4.38;;
55146;SDS011;41039;49.830;23.988;2023-04-06T02:59:52;11.55;;;6.45;;
55146;SDS011;41039;49.830;23.988;2023-04-06T03:02:17;8.27;;;5.20;;
55146;SDS011;41039;49.830;23.988;2023-04-06T03:04:43;7.55;;;4.18;;
55146;SDS011;41039;49.830;23.988;2023-04-06T03:07:09;8.00;;;5.28;;
55146;SDS011;41039;49.830;23.988;2023-04-06T03:09:36;13.52;;;7.50;;
55146;SDS011;41039;49.830;23.988;2023-04-06T03:12:01;7.50;;;5.03;;
55146;SDS011;41039;49.830;23.988;2023-04-06T03:14:27;7.78;;;5.82;;
55146;SDS011;41039;49.830;23.988;2023-04-06T03:16:52;7.70;;;5.43;;
55146;SDS011;41039;49.830;23.988;2023-04-06T03:19:18;8.27;;;5.07;;
55146;SDS011;41039;49.830;23.988;2023-04-06T03:21:43;7.40;;;4.07;;
55146;SDS011;41039;49.830;23.988;2023-04-06T03:24:08;6.13;;;3.92;;
55146;SDS011;41039;49.830;23.988;2023-04-06T03:26:33;6.78;;;4.80;;
55146;SDS011;41039;49.830;23.988;2023-04-06T03:28:58;7.57;;;4.45;;
55146;SDS011;41039;49.830;23.988;2023-04-06T03:31:24;7.32;;;4.32;;
55146;SDS011;41039;49.830;23.988;2023-04-06T03:33:49;7.18;;;4.18;;
55146;SDS011;41039;49.830;23.988;2023-04-06T03:36:15;8.07;;;4.68;;
55146;SDS011;41039;49.830;23.988;2023-04-06T03:38:40;7.03;;;4.53;;
55146;SDS011;41039;49.830;23.988;2023-04-06T03:41:05;10.25;;;6.88;;
55146;SDS011;41039;49.830;23.988;2023-04-06T03:43:31;7.03;;;5.05;;
55146;SDS011;41039;49.830;23.988;2023-04-06T03:45:56;6.80;;;4.05;;
55146;SDS011;41039;49.830;23.988;2023-04-06T03:48:21;7.95;;;5.30;;
55146;SDS011;41039;49.830;23.988;2023-04-06T03:50:46;6.70;;;4.25;;
55146;SDS011;41039;49.830;23.988;2023-04-06T03:53:12;7.25;;;4.55;;
55146;SDS011;41039;49.830;23.988;2023-04-06T03:55:37;10.07;;;5.32;;
55146;SDS011;41039;49.830;23.988;2023-04-06T03:58:02;12.75;;;7.20;;
55146;SDS011;41039;49.830;23.988;2023-04-06T04:00:27;21.65;;;9.48;;
55146;SDS011;41039;49.830;23.988;2023-04-06T04:02:53;18.38;;;8.25;;
55146;SDS011;41039;49.830;23.988;2023-04-06T04:05:18;20.88;;;13.38;;
55146;SDS011;41039;49.830;23.988;2023-04-06T04:07:43;11.90;;;6.47;;
55146;SDS011;41039;49.830;23.988;2023-04-06T04:10:08;8.88;;;5.45;;
55146;SDS011;41039;49.830;23.988;2023-04-06T04:12:34;11.07;;;6.03;;
55146;SDS011;41039;49.830;23.988;2023-04-06T04:14:59;12.40;;;7.15;;
55146;SDS011;41039;49.830;23.988;2023-04-06T04:17:24;16.90;;;8.77;;
55146;SDS011;41039;49.830;23.988;2023-04-06T04:19:50;12.10;;;7.13;;
55146;SDS011;41039;49.830;23.988;2023-04-06T04:22:15;14.00;;;7.20;;
55146;SDS011;41039;49.830;23.988;2023-04-06T04:24:40;8.30;;;4.30;;
55146;SDS011;41039;49.830;23.988;2023-04-06T04:27:05;5.63;;;3.85;;
55146;SDS011;41039;49.830;23.988;2023-04-06T04:29:31;5.68;;;3.60;;
55146;SDS011;41039;49.830;23.988;2023-04-06T04:31:56;5.45;;;3.53;;
55146;SDS011;41039;49.830;23.988;2023-04-06T04:34:21;4.65;;;3.33;;
55146;SDS011;41039;49.830;23.988;2023-04-06T04:36:50;7.07;;;3.40;;
55146;SDS011;41039;49.830;23.988;2023-04-06T04:39:15;8.77;;;3.90;;
55146;SDS011;41039;49.830;23.988;2023-04-06T04:41:40;22.95;;;13.65;;
55146;SDS011;41039;49.830;23.988;2023-04-06T04:44:05;6.47;;;4.68;;
55146;SDS011;41039;49.830;23.988;2023-04-06T04:46:31;6.70;;;4.00;;
55146;SDS011;41039;49.830;23.988;2023-04-06T04:48:56;6.05;;;4.05;;
55146;SDS011;41039;49.830;23.988;2023-04-06T04:51:21;8.70;;;4.05;;
55146;SDS011;41039;49.830;23.988;2023-04-06T04:53:46;6.82;;;3.45;;
55146;SDS011;41039;49.830;23.988;2023-04-06T04:56:12;8.02;;;5.60;;
55146;SDS011;41039;49.830;23.988;2023-04-06T04:58:37;6.05;;;3.30;;
55146;SDS011;41039;49.830;23.988;2023-04-06T05:01:02;12.48;;;8.65;;
55146;SDS011;41039;49.830;23.988;2023-04-06T05:03:27;24.35;;;13.90;;
55146;SDS011;41039;49.830;23.988;2023-04-06T05:05:53;45.47;;;25.63;;
55146;SDS011;41039;49.830;23.988;2023-04-06T05:08:18;21.38;;;12.73;;
55146;SDS011;41039;49.830;23.988;2023-04-06T05:10:43;87.43;;;49.00;;
55146;SDS011;41039;49.830;23.988;2023-04-06T05:13:09;30.08;;;16.63;;
55146;SDS011;41039;49.830;23.988;2023-04-06T05:15:35;34.80;;;18.40;;
55146;SDS011;41039;49.830;23.988;2023-04-06T05:18:02;25.42;;;15.25;;
55146;SDS011;41039;49.830;23.988;2023-04-06T05:20:28;16.50;;;10.43;;
55146;SDS011;41039;49.830;23.988;2023-04-06T05:22:53;39.85;;;24.85;;
55146;SDS011;41039;49.830;23.988;2023-04-06T05:25:18;20.20;;;12.30;;
55146;SDS011;41039;49.830;23.988;2023-04-06T05:27:44;35.42;;;20.98;;
55146;SDS011;41039;49.830;23.988;2023-04-06T05:30:09;42.08;;;23.92;;
55146;SDS011;41039;49.830;23.988;2023-04-06T05:32:34;12.32;;;6.78;;
55146;SDS011;41039;49.830;23.988;2023-04-06T05:35:00;5.10;;;3.00;;
55146;SDS011;41039;49.830;23.988;2023-04-06T05:37:25;16.85;;;8.30;;
55146;SDS011;41039;49.830;23.988;2023-04-06T05:39:50;14.88;;;6.38;;
55146;SDS011;41039;49.830;23.988;2023-04-06T05:42:16;29.08;;;11.35;;
55146;SDS011;41039;49.830;23.988;2023-04-06T05:44:41;18.58;;;9.30;;
55146;SDS011;41039;49.830;23.988;2023-04-06T05:47:06;20.85;;;8.90;;
55146;SDS011;41039;49.830;23.988;2023-04-06T05:49:32;9.85;;;6.38;;
55146;SDS011;41039;49.830;23.988;2023-04-06T05:51:57;11.95;;;5.38;;
55146;SDS011;41039;49.830;23.988;2023-04-06T05:54:22;27.77;;;14.25;;
55146;SDS011;41039;49.830;23.988;2023-04-06T05:56:48;15.82;;;9.32;;
55146;SDS011;41039;49.830;23.988;2023-04-06T05:59:13;12.82;;;5.55;;
55146;SDS011;41039;49.830;23.988;2023-04-06T06:01:38;20.55;;;11.38;;
55146;SDS011;41039;49.830;23.988;2023-04-06T06:04:03;18.90;;;12.40;;
55146;SDS011;41039;49.830;23.988;2023-04-06T06:06:29;13.75;;;8.20;;
55146;SDS011;41039;49.830;23.988;2023-04-06T06:08:57;5.85;;;3.40;;
55146;SDS011;41039;49.830;23.988;2023-04-06T06:11:25;8.10;;;5.80;;
55146;SDS011;41039;49.830;23.988;2023-04-06T06:13:51;10.00;;;7.00;;
55146;SDS011;41039;49.830;23.988;2023-04-06T06:16:16;5.95;;;3.65;;
55146;SDS011;41039;49.830;23.988;2023-04-06T06:18:42;14.10;;;8.20;;
55146;SDS011;41039;49.830;23.988;2023-04-06T06:21:07;18.95;;;10.85;;
55146;SDS011;41039;49.830;23.988;2023-04-06T06:23:32;11.35;;;6.95;;
55146;SDS011;41039;49.830;23.988;2023-04-06T06:25:58;9.93;;;6.43;;
55146;SDS011;41039;49.830;23.988;2023-04-06T06:28:23;10.55;;;6.03;;
55146;SDS011;41039;49.830;23.988;2023-04-06T06:30:50;4.72;;;3.00;;
55146;SDS011;41039;49.830;23.988;2023-04-06T06:33:15;3.95;;;2.60;;
55146;SDS011;41039;49.830;23.988;2023-04-06T06:35:40;14.88;;;8.82;;
55146;SDS011;41039;49.830;23.988;2023-04-06T06:38:06;6.80;;;3.55;;
55146;SDS011;41039;49.830;23.988;2023-04-06T06:40:31;9.50;;;5.72;;
55146;SDS011;41039;49.830;23.988;2023-04-06T06:42:56;20.17;;;12.85;;
55146;SDS011;41039;49.830;23.988;2023-04-06T06:45:21;13.52;;;7.22;;
55146;SDS011;41039;49.830;23.988;2023-04-06T06:47:46;22.85;;;12.13;;
55146;SDS011;41039;49.830;23.988;2023-04-06T06:50:12;18.67;;;10.35;;
55146;SDS011;41039;49.830;23.988;2023-04-06T06:52:37;23.83;;;13.70;;
55146;SDS011;41039;49.830;23.988;2023-04-06T06:55:02;61.47;;;36.85;;
55146;SDS011;41039;49.830;23.988;2023-04-06T06:57:28;34.20;;;19.13;;
55146;SDS011;41039;49.830;23.988;2023-04-06T06:59:53;39.95;;;22.40;;
55146;SDS011;41039;49.830;23.988;2023-04-06T07:02:18;22.33;;;12.90;;
55146;SDS011;41039;49.830;23.988;2023-04-06T07:04:47;104.65;;;54.67;;
55146;SDS011;41039;49.830;23.988;2023-04-06T07:07:12;77.93;;;41.00;;
55146;SDS011;41039;49.830;23.988;2023-04-06T07:09:37;59.53;;;30.88;;
55146;SDS011;41039;49.830;23.988;2023-04-06T07:12:02;26.33;;;11.43;;
55146;SDS011;41039;49.830;23.988;2023-04-06T07:14:28;28.77;;;17.05;;
55146;SDS011;41039;49.830;23.988;2023-04-06T07:16:53;42.78;;;24.25;;
55146;SDS011;41039;49.830;23.988;2023-04-06T07:19:18;18.23;;;11.70;;
55146;SDS011;41039;49.830;23.988;2023-04-06T07:21:43;41.38;;;23.13;;
55146;SDS011;41039;49.830;23.988;2023-04-06T07:24:09;66.47;;;37.08;;
55146;SDS011;41039;49.830;23.988;2023-04-06T07:26:34;36.53;;;21.15;;
55146;SDS011;41039;49.830;23.988;2023-04-06T07:29:01;58.85;;;29.08;;
55146;SDS011;41039;49.830;23.988;2023-04-06T07:31:26;44.13;;;19.60;;
55146;SDS011;41039;49.830;23.988;2023-04-06T07:33:51;38.65;;;16.45;;
55146;SDS011;41039;49.830;23.988;2023-04-06T07:36:17;42.58;;;15.52;;
55146;SDS011;41039;49.830;23.988;2023-04-06T07:38:43;36.85;;;18.30;;
55146;SDS011;41039;49.830;23.988;2023-04-06T07:41:08;22.52;;;8.82;;
55146;SDS011;41039;49.830;23.988;2023-04-06T07:43:33;24.02;;;13.65;;
55146;SDS011;41039;49.830;23.988;2023-04-06T07:45:58;32.60;;;17.85;;
55146;SDS011;41039;49.830;23.988;2023-04-06T07:48:25;35.88;;;19.27;;
55146;SDS011;41039;49.830;23.988;2023-04-06T07:50:50;63.72;;;35.47;;
55146;SDS011;41039;49.830;23.988;2023-04-06T07:53:16;29.17;;;17.73;;
55146;SDS011;41039;49.830;23.988;2023-04-06T07:55:41;13.15;;;7.95;;
55146;SDS011;41039;49.830;23.988;2023-04-06T07:58:06;74.63;;;43.90;;
55146;SDS011;41039;49.830;23.988;2023-04-06T08:00:32;11.98;;;7.95;;
55146;SDS011;41039;49.830;23.988;2023-04-06T08:02:58;21.98;;;12.82;;
55146;SDS011;41039;49.830;23.988;2023-04-06T08:05:23;31.48;;;18.23;;
55146;SDS011;41039;49.830;23.988;2023-04-06T08:07:48;24.75;;;13.13;;
55146;SDS011;41039;49.830;23.988;2023-04-06T08:10:14;28.65;;;15.90;;
55146;SDS011;41039;49.830;23.988;2023-04-06T08:12:39;47.50;;;28.40;;
55146;SDS011;41039;49.830;23.988;2023-04-06T08:15:04;28.08;;;15.55;;
55146;SDS011;41039;49.830;23.988;2023-04-06T08:17:31;61.55;;;33.63;;
55146;SDS011;41039;49.830;23.988;2023-04-06T08:19:57;16.10;;;8.32;;
55146;SDS011;41039;49.830;23.988;2023-04-06T08:22:22;12.63;;;7.95;;
55146;SDS011;41039;49.830;23.988;2023-04-06T08:24:47;16.38;;;9.15;;
55146;SDS011;41039;49.830;23.988;2023-04-06T08:27:12;15.07;;;7.80;;
55146;SDS011;41039;49.830;23.988;2023-04-06T08:29:39;40.58;;;23.65;;
55146;SDS011;41039;49.830;23.988;2023-04-06T08:32:04;37.63;;;22.83;;
55146;SDS011;41039;49.830;23.988;2023-04-06T08:34:32;22.75;;;13.68;;
55146;SDS011;41039;49.830;23.988;2023-04-06T08:36:57;14.05;;;8.32;;
55146;SDS011;41039;49.830;23.988;2023-04-06T08:39:22;8.63;;;5.15;;
55146;SDS011;41039;49.830;23.988;2023-04-06T08:41:50;27.67;;;15.07;;
55146;SDS011;41039;49.830;23.988;2023-04-06T08:44:17;25.70;;;13.20;;
55146;SDS011;41039;49.830;23.988;2023-04-06T08:46:43;7.88;;;5.30;;
55146;SDS011;41039;49.830;23.988;2023-04-06T08:49:08;8.93;;;6.07;;
55146;SDS011;41039;49.830;23.988;2023-04-06T08:51:34;13.40;;;8.10;;
55146;SDS011;41039;49.830;23.988;2023-04-06T08:53:59;11.63;;;6.10;;
55146;SDS011;41039;49.830;23.988;2023-04-06T08:56:25;17.20;;;9.68;;
55146;SDS011;41039;49.830;23.988;2023-04-06T08:58:52;19.95;;;10.68;;
55146;SDS011;41039;49.830;23.988;2023-04-06T09:01:17;8.35;;;5.75;;
55146;SDS011;41039;49.830;23.988;2023-04-06T09:03:45;13.90;;;7.32;;
55146;SDS011;41039;49.830;23.988;2023-04-06T09:06:11;18.58;;;10.98;;
55146;SDS011;41039;49.830;23.988;2023-04-06T09:08:38;22.50;;;11.65;;
55146;SDS011;41039;49.830;23.988;2023-04-06T09:11:04;28.25;;;15.10;;
55146;SDS011;41039;49.830;23.988;2023-04-06T09:13:29;24.80;;;14.68;;
55146;SDS011;41039;49.830;23.988;2023-04-06T09:15:58;12.77;;;6.90;;
55146;SDS011;41039;49.830;23.988;2023-04-06T09:18:30;11.13;;;6.15;;
55146;SDS011;41039;49.830;23.988;2023-04-06T09:21:03;7.57;;;4.10;;
55146;SDS011;41039;49.830;23.988;2023-04-06T09:23:28;5.57;;;3.40;;
55146;SDS011;41039;49.830;23.988;2023-04-06T09:26:13;4.90;;;3.38;;
55146;SDS011;41039;49.830;23.988;2023-04-06T09:31:06;12.70;;;7.82;;
55146;SDS011;41039;49.830;23.988;2023-04-06T09:33:31;10.23;;;4.43;;
55146;SDS011;41039;49.830;23.988;2023-04-06T09:35:57;14.55;;;8.20;;
55146;SDS011;41039;49.830;23.988;2023-04-06T09:38:22;11.65;;;5.65;;
55146;SDS011;41039;49.830;23.988;2023-04-06T09:40:50;11.30;;;4.97;;
55146;SDS011;41039;49.830;23.988;2023-04-06T09:43:28;6.35;;;3.33;;
55146;SDS011;41039;49.830;23.988;2023-04-06T09:45:55;7.85;;;4.22;;
55146;SDS011;41039;49.830;23.988;2023-04-06T09:48:20;8.15;;;4.20;;
55146;SDS011;41039;49.830;23.988;2023-04-06T09:50:49;13.85;;;7.60;;
55146;SDS011;41039;49.830;23.988;2023-04-06T09:53:16;4.93;;;3.38;;
55146;SDS011;41039;49.830;23.988;2023-04-06T09:55:42;9.80;;;5.93;;
55146;SDS011;41039;49.830;23.988;2023-04-06T09:58:15;8.82;;;6.10;;
55146;SDS011;41039;49.830;23.988;2023-04-06T10:05:53;8.13;;;4.38;;
55146;SDS011;41039;49.830;23.988;2023-04-06T10:08:20;8.38;;;4.60;;
55146;SDS011;41039;49.830;23.988;2023-04-06T10:10:47;28.35;;;16.40;;
55146;SDS011;41039;49.830;23.988;2023-04-06T10:13:13;28.30;;;14.20;;
55146;SDS011;41039;49.830;23.988;2023-04-06T10:15:39;8.40;;;4.20;;
55146;SDS011;41039;49.830;23.988;2023-04-06T10:18:07;7.32;;;3.92;;
55146;SDS011;41039;49.830;23.988;2023-04-06T10:23:14;11.18;;;4.82;;
55146;SDS011;41039;49.830;23.988;2023-04-06T10:25:54;5.82;;;3.47;;
55146;SDS011;41039;49.830;23.988;2023-04-06T10:28:20;5.28;;;2.40;;
55146;SDS011;41039;49.830;23.988;2023-04-06T10:30:45;4.07;;;2.30;;
55146;SDS011;41039;49.830;23.988;2023-04-06T10:33:14;3.60;;;1.92;;
55146;SDS011;41039;49.830;23.988;2023-04-06T10:35:39;5.53;;;3.20;;
55146;SDS011;41039;49.830;23.988;2023-04-06T10:38:05;7.05;;;3.65;;
55146;SDS011;41039;49.830;23.988;2023-04-06T10:40:30;5.45;;;2.60;;
55146;SDS011;41039;49.830;23.988;2023-04-06T10:43:18;6.22;;;3.67;;
55146;SDS011;41039;49.830;23.988;2023-04-06T10:45:43;5.45;;;3.33;;
55146;SDS011;41039;49.830;23.988;2023-04-06T10:48:15;3.30;;;1.98;;
55146;SDS011;41039;49.830;23.988;2023-04-06T10:50:47;5.82;;;3.45;;
55146;SDS011;41039;49.830;23.988;2023-04-06T10:53:20;6.57;;;3.33;;
55146;SDS011;41039;49.830;23.988;2023-04-06T10:55:45;7.00;;;3.45;;
55146;SDS011;41039;49.830;23.988;2023-04-06T10:58:11;5.47;;;3.15;;
55146;SDS011;41039;49.830;23.988;2023-04-06T11:00:42;4.85;;;2.33;;
55146;SDS011;41039;49.830;23.988;2023-04-06T11:03:08;4.15;;;2.40;;
55146;SDS011;41039;49.830;23.988;2023-04-06T11:05:33;3.95;;;2.40;;
55146;SDS011;41039;49.830;23.988;2023-04-06T11:07:58;5.70;;;2.65;;
55146;SDS011;41039;49.830;23.988;2023-04-06T11:10:24;4.28;;;3.28;;
55146;SDS011;41039;49.830;23.988;2023-04-06T11:12:53;6.55;;;3.65;;
55146;SDS011;41039;49.830;23.988;2023-04-06T11:15:18;5.28;;;2.80;;
55146;SDS011;41039;49.830;23.988;2023-04-06T11:17:43;6.18;;;3.97;;
55146;SDS011;41039;49.830;23.988;2023-04-06T11:20:10;7.05;;;3.03;;
55146;SDS011;41039;49.830;23.988;2023-04-06T11:22:35;6.10;;;3.78;;
55146;SDS011;41039;49.830;23.988;2023-04-06T11:25:04;15.63;;;6.38;;
55146;SDS011;41039;49.830;23.988;2023-04-06T11:27:30;8.77;;;4.97;;
55146;SDS011;41039;49.830;23.988;2023-04-06T11:29:57;7.97;;;3.70;;
55146;SDS011;41039;49.830;23.988;2023-04-06T11:32:22;6.38;;;3.65;;
55146;SDS011;41039;49.830;23.988;2023-04-06T11:34:48;4.32;;;2.85;;
55146;SDS011;41039;49.830;23.988;2023-04-06T11:37:14;7.97;;;4.57;;
55146;SDS011;41039;49.830;23.988;2023-04-06T11:39:40;7.00;;;3.78;;
55146;SDS011;41039;49.830;23.988;2023-04-06T11:42:06;8.68;;;5.30;;
55146;SDS011;41039;49.830;23.988;2023-04-06T11:44:38;6.50;;;4.05;;
55146;SDS011;41039;49.830;23.988;2023-04-06T11:47:05;10.60;;;3.63;;
55146;SDS011;41039;49.830;23.988;2023-04-06T11:49:31;5.65;;;3.63;;
55146;SDS011;41039;49.830;23.988;2023-04-06T11:51:57;4.20;;;2.58;;
55146;SDS011;41039;49.830;23.988;2023-04-06T11:54:29;7.38;;;3.88;;
55146;SDS011;41039;49.830;23.988;2023-04-06T11:56:55;4.55;;;2.70;;
55146;SDS011;41039;49.830;23.988;2023-04-06T11:59:20;5.15;;;2.67;;
55146;SDS011;41039;49.830;23.988;2023-04-06T12:01:47;7.22;;;3.85;;
55146;SDS011;41039;49.830;23.988;2023-04-06T12:04:15;6.45;;;2.53;;
55146;SDS011;41039;49.830;23.988;2023-04-06T12:06:42;5.05;;;2.10;;
55146;SDS011;41039;49.830;23.988;2023-04-06T12:09:07;5.68;;;3.20;;
55146;SDS011;41039;49.830;23.988;2023-04-06T12:11:33;4.65;;;2.63;;
55146;SDS011;41039;49.830;23.988;2023-04-06T12:13:58;4.70;;;2.78;;
55146;SDS011;41039;49.830;23.988;2023-04-06T12:16:26;4.63;;;2.97;;
55146;SDS011;41039;49.830;23.988;2023-04-06T12:18:51;5.07;;;3.05;;
55146;SDS011;41039;49.830;23.988;2023-04-06T12:21:17;5.43;;;3.40;;
55146;SDS011;41039;49.830;23.988;2023-04-06T12:23:42;4.10;;;2.45;;
55146;SDS011;41039;49.830;23.988;2023-04-06T12:26:07;5.63;;;3.53;;
55146;SDS011;41039;49.830;23.988;2023-04-06T12:28:32;4.85;;;3.30;;
55146;SDS011;41039;49.830;23.988;2023-04-06T12:31:01;6.38;;;2.80;;
55146;SDS011;41039;49.830;23.988;2023-04-06T12:33:26;3.95;;;2.65;;
55146;SDS011;41039;49.830;23.988;2023-04-06T12:35:51;5.47;;;3.05;;
55146;SDS011;41039;49.830;23.988;2023-04-06T12:38:16;4.30;;;2.63;;
55146;SDS011;41039;49.830;23.988;2023-04-06T12:40:42;8.02;;;3.67;;
55146;SDS011;41039;49.830;23.988;2023-04-06T12:43:07;4.05;;;2.60;;
55146;SDS011;41039;49.830;23.988;2023-04-06T12:45:32;4.85;;;2.67;;
55146;SDS011;41039;49.830;23.988;2023-04-06T12:47:58;4.03;;;1.92;;
55146;SDS011;41039;49.830;23.988;2023-04-06T12:50:23;4.03;;;2.55;;
55146;SDS011;41039;49.830;23.988;2023-04-06T12:52:48;4.28;;;2.13;;
55146;SDS011;41039;49.830;23.988;2023-04-06T12:55:14;4.07;;;1.80;;
55146;SDS011;41039;49.830;23.988;2023-04-06T12:57:39;4.15;;;1.80;;
55146;SDS011;41039;49.830;23.988;2023-04-06T13:00:05;2.95;;;1.80;;
55146;SDS011;41039;49.830;23.988;2023-04-06T13:02:31;3.42;;;1.90;;
55146;SDS011;41039;49.830;23.988;2023-04-06T13:04:56;2.88;;;1.85;;
55146;SDS011;41039;49.830;23.988;2023-04-06T13:07:21;5.22;;;2.78;;
55146;SDS011;41039;49.830;23.988;2023-04-06T13:09:47;4.47;;;2.70;;
55146;SDS011;41039;49.830;23.988;2023-04-06T13:12:14;4.88;;;3.13;;
55146;SDS011;41039;49.830;23.988;2023-04-06T13:14:39;3.08;;;1.50;;
55146;SDS011;41039;49.830;23.988;2023-04-06T13:17:05;2.83;;;1.90;;
55146;SDS011;41039;49.830;23.988;2023-04-06T13:19:30;2.65;;;1.50;;
55146;SDS011;41039;49.830;23.988;2023-04-06T13:21:56;1.88;;;1.30;;
55146;SDS011;41039;49.830;23.988;2023-04-06T13:24:21;3.78;;;1.63;;
55146;SDS011;41039;49.830;23.988;2023-04-06T13:26:48;3.53;;;1.65;;
55146;SDS011;41039;49.830;23.988;2023-04-06T13:29:13;2.17;;;1.40;;
55146;SDS011;41039;49.830;23.988;2023-04-06T13:31:38;3.30;;;1.67;;
55146;SDS011;41039;49.830;23.988;2023-04-06T13:34:04;2.30;;;1.25;;
55146;SDS011;41039;49.830;23.988;2023-04-06T13:36:29;2.42;;;1.23;;
55146;SDS011;41039;49.830;23.988;2023-04-06T13:38:56;3.58;;;2.15;;
55146;SDS011;41039;49.830;23.988;2023-04-06T13:41:22;4.65;;;2.05;;
55146;SDS011;41039;49.830;23.988;2023-04-06T13:43:48;4.75;;;2.75;;
55146;SDS011;41039;49.830;23.988;2023-04-06T13:46:13;3.22;;;1.83;;
55146;SDS011;41039;49.830;23.988;2023-04-06T13:48:38;3.90;;;1.92;;
55146;SDS011;41039;49.830;23.988;2023-04-06T13:51:07;4.00;;;2.42;;
55146;SDS011;41039;49.830;23.988;2023-04-06T13:53:32;4.03;;;2.28;;
55146;SDS011;41039;49.830;23.988;2023-04-06T13:55:58;3.40;;;1.80;;
55146;SDS011;41039;49.830;23.988;2023-04-06T13:58:23;3.10;;;1.50;;
55146;SDS011;41039;49.830;23.988;2023-04-06T14:00:48;3.90;;;2.08;;
55146;SDS011;41039;49.830;23.988;2023-04-06T14:03:13;5.35;;;2.45;;
55146;SDS011;41039;49.830;23.988;2023-04-06T14:05:39;3.58;;;2.08;;
55146;SDS011;41039;49.830;23.988;2023-04-06T14:08:04;3.55;;;1.92;;
55146;SDS011;41039;49.830;23.988;2023-04-06T14:10:29;3.83;;;2.33;;
55146;SDS011;41039;49.830;23.988;2023-04-06T14:12:55;5.43;;;3.00;;
55146;SDS011;41039;49.830;23.988;2023-04-06T14:15:20;4.43;;;2.03;;
55146;SDS011;41039;49.830;23.988;2023-04-06T14:17:46;4.57;;;3.60;;
55146;SDS011;41039;49.830;23.988;2023-04-06T14:20:12;5.38;;;3.08;;
55146;SDS011;41039;49.830;23.988;2023-04-06T14:22:39;3.55;;;2.50;;
55146;SDS011;41039;49.830;23.988;2023-04-06T14:25:06;4.13;;;2.10;;
55146;SDS011;41039;49.830;23.988;2023-04-06T14:27:31;3.97;;;2.63;;
55146;SDS011;41039;49.830;23.988;2023-04-06T14:29:57;5.18;;;2.60;;